Share

Innsbruck, Austria

4:49 PM CEST on April 24, 2014 (GMT +0200)
ITIROLAM2 Elev 2136 ft | 47.26 °N, 11.47 °E | Change Station

Current weather conditions updated 49 minutes ago

Partly Cloudy
Partly Cloudy
68.9 °F
Feels Like 68.9 °F
N
0.0
Wind Variable Wind from NW
Gusts 0.0 mph
Sunrise 6:10 AM
Sunset 8:15 PM
Moon Waning Crescent

Tomorrow is forecast to be Warmer than today.

Pressure 29.95 in
Visibility 6.2 miles
Clouds Few 7000 ft
Dew Point 44 °F
Humidity 41%
Rainfall 0.00 in
Snow Depth Not available.
UV 0.0 out of 16
Pollen Not available.
Air Quality Not available.
Flu Activity Not available.
METAR LOWI 241420Z 11007KT 010V150 9999 FEW070 22/01 Q1014 NOSIG

More Conditions Fewer Conditions

Pressure 29.95 in
Visibility 6.2 miles
Clouds Few 7000 ft
Dew Point 44 °F
Humidity 41%
Rainfall 0.00 in
Snow Depth Not available.
UV 0.0 out of 16
Pollen Not available.
Air Quality Not available.
Flu Activity Not available.
METAR LOWI 241420Z 11007KT 010V150 9999 FEW070 22/01 Q1014 NOSIG

More Conditions Fewer Conditions

10-Day Weather Forecast

Almanac

Astronomy

Apr. 24, 2014 Rise Set
Actual Time 6:10 AM CEST 8:15 PM CEST
Civil Twilight 5:37 AM CEST 8:49 PM CEST
Nautical Twilight 4:56 AM CEST 9:30 PM CEST
Astronomical Twilight 4:10 AM CEST 10:16 PM CEST
Moon 3:32 AM CEST 2:52 PM CEST
Length of Visible Light 15h 11m
Length of Day
14h 05m
Tomorrow will be 3m 7s longer.
Waning Crescent, 25% of the Moon is Illuminated
Today
Waning Crescent
Apr 29
New
May 6
First Quarter
May 14
Full
May 21
Last Quarter

Today's Extremes

Country Highs Country Lows

Community

  • Clouds mov'n in
    Clouds mov'n in
  • Stacked
    Stacked
  • clouds approaching Red Sox Nation
    clouds approaching Red Sox Nation
  • Balance
    Balance
  • Citysky
    Citysky

WunderPhotos

Upload Photos

1,704,644 photos uploaded!

WunderBlogs® & News

By Dr. Jeff Masters
Director of Meteorology, Weather Underground
By Kari Strenfel
Meteorologist, Weather Underground
By Christopher C. Burt
Weather Historian, Weather Underground
April 24, 2014
April 24, 2014
April 24, 2014

Nearby

Snow Depth

Not available.

Coastal Water Temperatures

Place Temperature
No Stations Reporting

Earthquake Activity

City Distance Mag. Time & Date
No recent earthquake activity has been reported nearby.
Minimum magnitude displayed is 2.5.

Nearby Weather Stations

Station Location Temp. Heat Index Dew Point Humidity Wind Precip. Elev Updated Type
Ampass 68.9 °F - 44 °F 41% NW  at  0.0 mph 0.00 in / hr 2136 ft 3:59 PM CEST Normal
Oberhofen Im Inntal 70.2 °F 77 °F 42 °F 36% North  at  2.0 mph 0.00 in / hr 2041 ft 4:45 PM CEST Normal
Kruen 66.1 °F - 43 °F 43% NNE  at  9.0 mph 0.00 in / hr 2864 ft 4:37 PM CEST Normal
Mieming 67.5 °F - 39 °F 35% ENE  at  9.1 mph 0.00 in / hr 2730 ft 3:59 PM CEST Normal

Show More Stations Show Fewer Stations

What do you think?

We're not finished. Please let us know what you like, what you don't like, and what you are still missing.